South Chatham, Massachusetts
Current Conditions -  °F | °C
As of 6:52 PM on Monday 24 Nov 2014 (Local Time) from KCQX Reporting Station
Haze Haze  
Wind Chill: 57°   Ceiling: 200
Heat Index: 57°   Visibility: 0.75mi
Dew Point: 57°   Wind: 14mph
Humidity: 100%   Direction: 220°SW
Pressure: 29.72"   Gusts: 28mph
Location:  41.68°N, 70.02°W
Report Text: KCQX 242352Z AUTO 22012G24KT 3/4SM BR VV002 14/14 A2972 RMK AO2 SLP065 T01390139 10150 20133 50004
Loading
Personal Weather Stations






























Interactive Weather Map New forecast layout! Learn more

10-Day Weather Forecast

Advertisements
Track Severe Weather on mobile